sensor_id;sensor_type;location;lat;lon;timestamp;pressure;altitude;pressure_sealevel;temperature
67509;BMP280;54354;44.724;11.284;2023-01-31T00:00:46;101914.38;;;11.24
67509;BMP280;54354;44.724;11.284;2023-01-31T00:03:11;101919.31;;;11.22
67509;BMP280;54354;44.724;11.284;2023-01-31T00:05:37;101919.72;;;11.21
67509;BMP280;54354;44.724;11.284;2023-01-31T00:08:03;101937.88;;;11.22
67509;BMP280;54354;44.724;11.284;2023-01-31T00:10:29;101937.13;;;11.18
67509;BMP280;54354;44.724;11.284;2023-01-31T00:12:55;101943.91;;;11.15
67509;BMP280;54354;44.724;11.284;2023-01-31T00:15:21;101935.97;;;11.15
67509;BMP280;54354;44.724;11.284;2023-01-31T00:17:46;101939.38;;;11.16
67509;BMP280;54354;44.724;11.284;2023-01-31T00:20:12;101944.31;;;11.18
67509;BMP280;54354;44.724;11.284;2023-01-31T00:22:38;101945.06;;;11.18
67509;BMP280;54354;44.724;11.284;2023-01-31T00:25:04;101933.72;;;11.18
67509;BMP280;54354;44.724;11.284;2023-01-31T00:27:29;101951.13;;;11.15
67509;BMP280;54354;44.724;11.284;2023-01-31T00:29:55;101951.13;;;11.11
67509;BMP280;54354;44.724;11.284;2023-01-31T00:32:20;101949.22;;;11.08
67509;BMP280;54354;44.724;11.284;2023-01-31T00:34:46;101951.84;;;11.05
67509;BMP280;54354;44.724;11.284;2023-01-31T00:37:11;101953.75;;;11.04
67509;BMP280;54354;44.724;11.284;2023-01-31T00:39:37;101957.53;;;11.07
67509;BMP280;54354;44.724;11.284;2023-01-31T00:42:02;101950.75;;;11.06
67509;BMP280;54354;44.724;11.284;2023-01-31T00:44:28;101954.09;;;10.99
67509;BMP280;54354;44.724;11.284;2023-01-31T00:46:55;101964.69;;;10.96
67509;BMP280;54354;44.724;11.284;2023-01-31T00:49:21;101972.63;;;10.92
67509;BMP280;54354;44.724;11.284;2023-01-31T00:51:46;101976.44;;;10.87
67509;BMP280;54354;44.724;11.284;2023-01-31T00:54:12;101970.75;;;10.82
67509;BMP280;54354;44.724;11.284;2023-01-31T00:56:38;101964.28;;;10.83
67509;BMP280;54354;44.724;11.284;2023-01-31T00:59:03;101973.38;;;10.82
67509;BMP280;54354;44.724;11.284;2023-01-31T01:01:33;101971.47;;;10.79
67509;BMP280;54354;44.724;11.284;2023-01-31T01:04:00;101971.06;;;10.77
67509;BMP280;54354;44.724;11.284;2023-01-31T01:06:31;101974.47;;;10.74
67509;BMP280;54354;44.724;11.284;2023-01-31T01:08:57;101978.59;;;10.64
67509;BMP280;54354;44.724;11.284;2023-01-31T01:11:30;101973.97;;;10.47
67509;BMP280;54354;44.724;11.284;2023-01-31T01:13:57;101976.19;;;10.37
67509;BMP280;54354;44.724;11.284;2023-01-31T01:16:25;101982.88;;;10.21
67509;BMP280;54354;44.724;11.284;2023-01-31T01:18:51;101985.50;;;10.13
67509;BMP280;54354;44.724;11.284;2023-01-31T01:21:27;101976.28;;;10.00
67509;BMP280;54354;44.724;11.284;2023-01-31T01:23:55;101984.53;;;9.92
67509;BMP280;54354;44.724;11.284;2023-01-31T01:26:27;101987.13;;;9.81
67509;BMP280;54354;44.724;11.284;2023-01-31T01:28:54;101980.66;;;9.75
67509;BMP280;54354;44.724;11.284;2023-01-31T01:31:20;101995.34;;;9.69
67509;BMP280;54354;44.724;11.284;2023-01-31T01:33:47;101995.97;;;9.58
67509;BMP280;54354;44.724;11.284;2023-01-31T01:36:16;101998.59;;;9.55
67509;BMP280;54354;44.724;11.284;2023-01-31T01:38:44;101997.09;;;9.57
67509;BMP280;54354;44.724;11.284;2023-01-31T01:41:11;102006.16;;;9.56
67509;BMP280;54354;44.724;11.284;2023-01-31T01:43:47;102011.81;;;9.55
67509;BMP280;54354;44.724;11.284;2023-01-31T01:46:22;102013.69;;;9.54
67509;BMP280;54354;44.724;11.284;2023-01-31T01:48:51;102015.63;;;9.57
67509;BMP280;54354;44.724;11.284;2023-01-31T01:51:22;102024.28;;;9.54
67509;BMP280;54354;44.724;11.284;2023-01-31T01:53:53;102023.09;;;9.48
67509;BMP280;54354;44.724;11.284;2023-01-31T01:56:28;102022.03;;;9.56
67509;BMP280;54354;44.724;11.284;2023-01-31T02:01:28;102023.34;;;10.21
67509;BMP280;54354;44.724;11.284;2023-01-31T02:03:53;102033.31;;;9.91
67509;BMP280;54354;44.724;11.284;2023-01-31T02:06:19;102024.44;;;9.72
67509;BMP280;54354;44.724;11.284;2023-01-31T02:08:45;102041.38;;;9.64
67509;BMP280;54354;44.724;11.284;2023-01-31T02:11:16;102047.41;;;9.61
67509;BMP280;54354;44.724;11.284;2023-01-31T02:13:45;102038.25;;;9.55
67509;BMP280;54354;44.724;11.284;2023-01-31T02:16:13;102041.38;;;9.64
67509;BMP280;54354;44.724;11.284;2023-01-31T02:18:39;102033.47;;;9.68
67509;BMP280;54354;44.724;11.284;2023-01-31T02:34:54;102033.88;;;9.32
67509;BMP280;54354;44.724;11.284;2023-01-31T02:43:23;102027.81;;;9.32
67509;BMP280;54354;44.724;11.284;2023-01-31T02:46:00;102032.28;;;9.24
67509;BMP280;54354;44.724;11.284;2023-01-31T02:48:40;102035.19;;;9.16
67509;BMP280;54354;44.724;11.284;2023-01-31T02:53:38;102035.13;;;9.12
67509;BMP280;54354;44.724;11.284;2023-01-31T02:56:29;102028.41;;;9.18
67509;BMP280;54354;44.724;11.284;2023-01-31T02:59:18;102030.66;;;9.16
67509;BMP280;54354;44.724;11.284;2023-01-31T03:01:57;102030.94;;;9.07
67509;BMP280;54354;44.724;11.284;2023-01-31T03:04:29;102034.22;;;9.01
67509;BMP280;54354;44.724;11.284;2023-01-31T03:07:07;102040.66;;;9.00
67509;BMP280;54354;44.724;11.284;2023-01-31T03:22:36;102067.25;;;9.14
67509;BMP280;54354;44.724;11.284;2023-01-31T03:25:04;102067.13;;;9.71
67509;BMP280;54354;44.724;11.284;2023-01-31T03:27:33;102062.59;;;9.34
67509;BMP280;54354;44.724;11.284;2023-01-31T03:30:06;102065.03;;;9.16
67509;BMP280;54354;44.724;11.284;2023-01-31T03:32:38;102070.22;;;9.09
67509;BMP280;54354;44.724;11.284;2023-01-31T03:35:07;102067.19;;;9.10
67509;BMP280;54354;44.724;11.284;2023-01-31T03:37:51;102064.53;;;9.07
67509;BMP280;54354;44.724;11.284;2023-01-31T03:40:24;102078.72;;;8.99
67509;BMP280;54354;44.724;11.284;2023-01-31T03:45:26;102089.00;;;9.04
67509;BMP280;54354;44.724;11.284;2023-01-31T03:47:53;102089.78;;;9.04
67509;BMP280;54354;44.724;11.284;2023-01-31T03:50:24;102094.59;;;8.99
67509;BMP280;54354;44.724;11.284;2023-01-31T03:52:59;102083.94;;;8.92
67509;BMP280;54354;44.724;11.284;2023-01-31T03:55:36;102080.09;;;8.85
67509;BMP280;54354;44.724;11.284;2023-01-31T03:58:06;102081.13;;;8.81
67509;BMP280;54354;44.724;11.284;2023-01-31T04:00:34;102084.81;;;8.73
67509;BMP280;54354;44.724;11.284;2023-01-31T04:03:09;102081.31;;;8.69
67509;BMP280;54354;44.724;11.284;2023-01-31T04:05:35;102095.44;;;8.76
67509;BMP280;54354;44.724;11.284;2023-01-31T04:08:02;102093.25;;;8.82
67509;BMP280;54354;44.724;11.284;2023-01-31T04:10:31;102087.66;;;8.87
67509;BMP280;54354;44.724;11.284;2023-01-31T04:12:56;102093.81;;;8.95
67509;BMP280;54354;44.724;11.284;2023-01-31T04:15:22;102090.41;;;8.94
67509;BMP280;54354;44.724;11.284;2023-01-31T04:17:48;102087.06;;;8.97
67509;BMP280;54354;44.724;11.284;2023-01-31T04:20:13;102083.69;;;9.00
67509;BMP280;54354;44.724;11.284;2023-01-31T04:22:39;102078.78;;;9.02
67509;BMP280;54354;44.724;11.284;2023-01-31T04:25:05;102079.56;;;9.03
67509;BMP280;54354;44.724;11.284;2023-01-31T04:27:32;102072.41;;;9.03
67509;BMP280;54354;44.724;11.284;2023-01-31T04:29:57;102070.19;;;9.05
67509;BMP280;54354;44.724;11.284;2023-01-31T04:32:23;102078.09;;;9.05
67509;BMP280;54354;44.724;11.284;2023-01-31T04:34:48;102074.28;;;9.03
67509;BMP280;54354;44.724;11.284;2023-01-31T04:37:14;102079.91;;;9.01
67509;BMP280;54354;44.724;11.284;2023-01-31T04:39:39;102073.94;;;9.08
67509;BMP280;54354;44.724;11.284;2023-01-31T04:42:04;102078.94;;;9.13
67509;BMP280;54354;44.724;11.284;2023-01-31T04:44:30;102076.75;;;9.19
67509;BMP280;54354;44.724;11.284;2023-01-31T04:46:55;102082.44;;;9.21
67509;BMP280;54354;44.724;11.284;2023-01-31T04:49:21;102064.69;;;9.21
67509;BMP280;54354;44.724;11.284;2023-01-31T04:51:46;102068.84;;;9.22
67509;BMP280;54354;44.724;11.284;2023-01-31T04:54:12;102076.09;;;9.25
67509;BMP280;54354;44.724;11.284;2023-01-31T04:56:37;102073.81;;;9.27
67509;BMP280;54354;44.724;11.284;2023-01-31T04:59:03;102081.38;;;9.29
67509;BMP280;54354;44.724;11.284;2023-01-31T05:01:28;102083.31;;;9.32
67509;BMP280;54354;44.724;11.284;2023-01-31T05:03:54;102078.13;;;9.35
67509;BMP280;54354;44.724;11.284;2023-01-31T05:06:20;102081.84;;;9.34
67509;BMP280;54354;44.724;11.284;2023-01-31T05:08:45;102076.09;;;9.29
67509;BMP280;54354;44.724;11.284;2023-01-31T05:11:11;102082.50;;;9.24
67509;BMP280;54354;44.724;11.284;2023-01-31T05:13:37;102085.47;;;9.23
67509;BMP280;54354;44.724;11.284;2023-01-31T05:16:10;102080.56;;;9.21
67509;BMP280;54354;44.724;11.284;2023-01-31T05:18:36;102089.28;;;9.25
67509;BMP280;54354;44.724;11.284;2023-01-31T05:21:03;102099.75;;;9.18
67509;BMP280;54354;44.724;11.284;2023-01-31T05:23:29;102102.28;;;9.07
67509;BMP280;54354;44.724;11.284;2023-01-31T05:25:55;102108.28;;;9.04
67509;BMP280;54354;44.724;11.284;2023-01-31T05:28:22;102104.13;;;9.03
67509;BMP280;54354;44.724;11.284;2023-01-31T05:30:48;102103.34;;;9.03
67509;BMP280;54354;44.724;11.284;2023-01-31T05:33:14;102104.44;;;9.02
67509;BMP280;54354;44.724;11.284;2023-01-31T05:35:39;102118.00;;;8.97
67509;BMP280;54354;44.724;11.284;2023-01-31T05:38:07;102115.34;;;8.97
67509;BMP280;54354;44.724;11.284;2023-01-31T05:40:33;102126.72;;;9.01
67509;BMP280;54354;44.724;11.284;2023-01-31T05:42:59;102123.41;;;9.07
67509;BMP280;54354;44.724;11.284;2023-01-31T05:45:29;102122.66;;;9.07
67509;BMP280;54354;44.724;11.284;2023-01-31T05:47:55;102135.56;;;9.12
67509;BMP280;54354;44.724;11.284;2023-01-31T05:50:21;102122.69;;;9.10
67509;BMP280;54354;44.724;11.284;2023-01-31T05:52:51;102118.50;;;9.06
67509;BMP280;54354;44.724;11.284;2023-01-31T05:55:17;102124.16;;;9.08
67509;BMP280;54354;44.724;11.284;2023-01-31T05:57:43;102132.06;;;9.04
67509;BMP280;54354;44.724;11.284;2023-01-31T06:00:09;102124.03;;;8.97
67509;BMP280;54354;44.724;11.284;2023-01-31T06:02:39;102128.09;;;8.91
67509;BMP280;54354;44.724;11.284;2023-01-31T06:05:05;102134.81;;;8.85
67509;BMP280;54354;44.724;11.284;2023-01-31T06:07:30;102137.78;;;8.83
67509;BMP280;54354;44.724;11.284;2023-01-31T06:09:56;102148.34;;;8.83
67509;BMP280;54354;44.724;11.284;2023-01-31T06:12:21;102150.56;;;8.81
67509;BMP280;54354;44.724;11.284;2023-01-31T06:14:46;102160.69;;;8.76
67509;BMP280;54354;44.724;11.284;2023-01-31T06:17:13;102153.34;;;8.66
67509;BMP280;54354;44.724;11.284;2023-01-31T06:19:39;102150.66;;;8.62
67509;BMP280;54354;44.724;11.284;2023-01-31T06:22:04;102151.63;;;8.54
67509;BMP280;54354;44.724;11.284;2023-01-31T06:24:30;102164.00;;;8.50
67509;BMP280;54354;44.724;11.284;2023-01-31T06:26:55;102159.16;;;8.52
67509;BMP280;54354;44.724;11.284;2023-01-31T06:29:22;102169.25;;;8.46
67509;BMP280;54354;44.724;11.284;2023-01-31T06:31:48;102185.00;;;8.43
67509;BMP280;54354;44.724;11.284;2023-01-31T06:34:14;102177.88;;;8.43
67509;BMP280;54354;44.724;11.284;2023-01-31T06:36:39;102182.94;;;8.52
67509;BMP280;54354;44.724;11.284;2023-01-31T06:39:05;102178.19;;;8.61
67509;BMP280;54354;44.724;11.284;2023-01-31T06:41:30;102194.13;;;8.68
67509;BMP280;54354;44.724;11.284;2023-01-31T06:43:56;102204.81;;;8.75
67509;BMP280;54354;44.724;11.284;2023-01-31T06:46:22;102203.72;;;8.76
67509;BMP280;54354;44.724;11.284;2023-01-31T06:48:47;102221.34;;;8.72
67509;BMP280;54354;44.724;11.284;2023-01-31T06:51:14;102208.47;;;8.67
67509;BMP280;54354;44.724;11.284;2023-01-31T06:53:39;102224.59;;;8.62
67509;BMP280;54354;44.724;11.284;2023-01-31T06:56:05;102212.06;;;8.59
67509;BMP280;54354;44.724;11.284;2023-01-31T06:58:31;102219.97;;;8.55
67509;BMP280;54354;44.724;11.284;2023-01-31T07:01:04;102219.41;;;8.46
67509;BMP280;54354;44.724;11.284;2023-01-31T07:03:29;102228.91;;;8.51
67509;BMP280;54354;44.724;11.284;2023-01-31T07:05:55;102242.16;;;8.54
67509;BMP280;54354;44.724;11.284;2023-01-31T07:08:21;102255.38;;;8.54
67509;BMP280;54354;44.724;11.284;2023-01-31T07:10:47;102269.38;;;8.55
67509;BMP280;54354;44.724;11.284;2023-01-31T07:13:13;102267.41;;;8.52
67509;BMP280;54354;44.724;11.284;2023-01-31T07:15:39;102274.97;;;8.53
67509;BMP280;54354;44.724;11.284;2023-01-31T07:18:04;102276.94;;;8.56
67509;BMP280;54354;44.724;11.284;2023-01-31T07:20:30;102277.31;;;8.58
67509;BMP280;54354;44.724;11.284;2023-01-31T07:22:57;102279.56;;;8.56
67509;BMP280;54354;44.724;11.284;2023-01-31T07:25:23;102284.88;;;8.60
67509;BMP280;54354;44.724;11.284;2023-01-31T07:27:49;102285.44;;;8.69
67509;BMP280;54354;44.724;11.284;2023-01-31T07:30:14;102283.00;;;8.80
67509;BMP280;54354;44.724;11.284;2023-01-31T07:32:40;102288.47;;;8.91
67509;BMP280;54354;44.724;11.284;2023-01-31T07:35:06;102292.81;;;9.02
67509;BMP280;54354;44.724;11.284;2023-01-31T07:37:31;102296.34;;;9.10
67509;BMP280;54354;44.724;11.284;2023-01-31T07:39:57;102286.59;;;9.14
67509;BMP280;54354;44.724;11.284;2023-01-31T07:42:22;102290.81;;;9.19
67509;BMP280;54354;44.724;11.284;2023-01-31T07:44:48;102304.88;;;9.23
67509;BMP280;54354;44.724;11.284;2023-01-31T07:47:13;102296.28;;;9.29
67509;BMP280;54354;44.724;11.284;2023-01-31T07:49:39;102297.16;;;9.37
67509;BMP280;54354;44.724;11.284;2023-01-31T07:52:04;102303.69;;;9.43
67509;BMP280;54354;44.724;11.284;2023-01-31T07:54:30;102296.97;;;9.49
67509;BMP280;54354;44.724;11.284;2023-01-31T07:56:55;102300.78;;;9.52
67509;BMP280;54354;44.724;11.284;2023-01-31T07:59:21;102298.25;;;9.59
67509;BMP280;54354;44.724;11.284;2023-01-31T08:01:47;102302.81;;;9.62
67509;BMP280;54354;44.724;11.284;2023-01-31T08:04:32;102294.84;;;9.58
67509;BMP280;54354;44.724;11.284;2023-01-31T08:06:58;102312.16;;;9.56
67509;BMP280;54354;44.724;11.284;2023-01-31T08:09:25;102310.25;;;9.53
67509;BMP280;54354;44.724;11.284;2023-01-31T08:11:51;102314.44;;;9.54
67509;BMP280;54354;44.724;11.284;2023-01-31T08:14:17;102315.59;;;9.56
67509;BMP280;54354;44.724;11.284;2023-01-31T08:16:44;102311.56;;;9.66
67509;BMP280;54354;44.724;11.284;2023-01-31T08:19:10;102318.91;;;9.76
67509;BMP280;54354;44.724;11.284;2023-01-31T08:21:35;102325.88;;;9.88
67509;BMP280;54354;44.724;11.284;2023-01-31T08:24:01;102329.78;;;9.98
67509;BMP280;54354;44.724;11.284;2023-01-31T08:26:26;102320.06;;;10.09
67509;BMP280;54354;44.724;11.284;2023-01-31T08:28:52;102311.53;;;10.19
67509;BMP280;54354;44.724;11.284;2023-01-31T08:31:21;102312.34;;;10.23
67509;BMP280;54354;44.724;11.284;2023-01-31T08:33:47;102323.03;;;10.34
67509;BMP280;54354;44.724;11.284;2023-01-31T08:36:19;102315.53;;;10.39
67509;BMP280;54354;44.724;11.284;2023-01-31T08:38:45;102322.44;;;10.48
67509;BMP280;54354;44.724;11.284;2023-01-31T08:41:11;102318.69;;;10.52
67509;BMP280;54354;44.724;11.284;2023-01-31T08:43:37;102323.69;;;10.57
67509;BMP280;54354;44.724;11.284;2023-01-31T08:46:04;102323.31;;;10.59
67509;BMP280;54354;44.724;11.284;2023-01-31T08:48:34;102334.75;;;10.67
67509;BMP280;54354;44.724;11.284;2023-01-31T08:51:04;102329.25;;;10.82
67509;BMP280;54354;44.724;11.284;2023-01-31T08:53:30;102334.59;;;10.93
67509;BMP280;54354;44.724;11.284;2023-01-31T08:56:00;102321.75;;;10.95
67509;BMP280;54354;44.724;11.284;2023-01-31T08:58:26;102325.28;;;11.06
67509;BMP280;54354;44.724;11.284;2023-01-31T09:00:52;102327.97;;;11.13
67509;BMP280;54354;44.724;11.284;2023-01-31T09:03:18;102334.47;;;11.23
67509;BMP280;54354;44.724;11.284;2023-01-31T09:05:43;102336.44;;;11.26
67509;BMP280;54354;44.724;11.284;2023-01-31T09:08:10;102334.16;;;11.28
67509;BMP280;54354;44.724;11.284;2023-01-31T09:10:36;102338.41;;;11.36
67509;BMP280;54354;44.724;11.284;2023-01-31T09:13:01;102344.13;;;11.46
67509;BMP280;54354;44.724;11.284;2023-01-31T09:15:27;102346.44;;;11.54
67509;BMP280;54354;44.724;11.284;2023-01-31T09:17:52;102345.75;;;11.64
67509;BMP280;54354;44.724;11.284;2023-01-31T09:20:18;102337.09;;;11.71
67509;BMP280;54354;44.724;11.284;2023-01-31T09:22:43;102333.72;;;11.74
67509;BMP280;54354;44.724;11.284;2023-01-31T09:25:09;102339.03;;;11.78
67509;BMP280;54354;44.724;11.284;2023-01-31T09:27:36;102345.13;;;11.82
67509;BMP280;54354;44.724;11.284;2023-01-31T09:30:04;102348.16;;;11.84
67509;BMP280;54354;44.724;11.284;2023-01-31T09:32:30;102355.03;;;11.92
67509;BMP280;54354;44.724;11.284;2023-01-31T09:34:57;102353.88;;;11.93
67509;BMP280;54354;44.724;11.284;2023-01-31T09:37:23;102353.91;;;11.97
67509;BMP280;54354;44.724;11.284;2023-01-31T09:39:49;102360.38;;;12.06
67509;BMP280;54354;44.724;11.284;2023-01-31T09:44:41;102369.16;;;12.21
67509;BMP280;54354;44.724;11.284;2023-01-31T09:47:21;102370.72;;;12.29
67509;BMP280;54354;44.724;11.284;2023-01-31T09:50:00;102364.69;;;12.32
67509;BMP280;54354;44.724;11.284;2023-01-31T09:52:27;102367.72;;;12.38
67509;BMP280;54354;44.724;11.284;2023-01-31T09:54:54;102361.28;;;12.39
67509;BMP280;54354;44.724;11.284;2023-01-31T10:00:23;102374.22;;;12.48
67509;BMP280;54354;44.724;11.284;2023-01-31T10:03:31;102374.22;;;12.62
67509;BMP280;54354;44.724;11.284;2023-01-31T10:06:05;102376.16;;;12.61
67509;BMP280;54354;44.724;11.284;2023-01-31T10:11:09;102351.09;;;12.66
67509;BMP280;54354;44.724;11.284;2023-01-31T10:13:54;102348.03;;;12.78
67509;BMP280;54354;44.724;11.284;2023-01-31T10:16:30;102349.56;;;12.83
67509;BMP280;54354;44.724;11.284;2023-01-31T10:19:08;102352.25;;;12.86
67509;BMP280;54354;44.724;11.284;2023-01-31T10:21:43;102357.19;;;12.95
67509;BMP280;54354;44.724;11.284;2023-01-31T10:24:12;102354.91;;;13.04
67509;BMP280;54354;44.724;11.284;2023-01-31T10:26:43;102338.19;;;13.07
67509;BMP280;54354;44.724;11.284;2023-01-31T10:29:17;102343.88;;;13.13
67509;BMP280;54354;44.724;11.284;2023-01-31T10:31:55;102327.56;;;13.21
67509;BMP280;54354;44.724;11.284;2023-01-31T10:34:46;102333.22;;;13.31
67509;BMP280;54354;44.724;11.284;2023-01-31T10:39:48;102331.69;;;13.26
67509;BMP280;54354;44.724;11.284;2023-01-31T10:45:19;102341.56;;;13.43
67509;BMP280;54354;44.724;11.284;2023-01-31T10:50:18;102334.34;;;13.47
67509;BMP280;54354;44.724;11.284;2023-01-31T10:55:38;102339.22;;;13.74
67509;BMP280;54354;44.724;11.284;2023-01-31T10:58:18;102330.81;;;13.75
67509;BMP280;54354;44.724;11.284;2023-01-31T11:00:44;102326.59;;;13.82
67509;BMP280;54354;44.724;11.284;2023-01-31T11:03:12;102320.13;;;13.83
67509;BMP280;54354;44.724;11.284;2023-01-31T11:05:45;102310.25;;;13.83
67509;BMP280;54354;44.724;11.284;2023-01-31T11:10:51;102306.44;;;13.84
67509;BMP280;54354;44.724;11.284;2023-01-31T11:13:18;102308.31;;;13.91
67509;BMP280;54354;44.724;11.284;2023-01-31T11:15:43;102303.38;;;13.93
67509;BMP280;54354;44.724;11.284;2023-01-31T11:18:36;102301.75;;;14.06
67509;BMP280;54354;44.724;11.284;2023-01-31T11:21:03;102305.16;;;14.06
67509;BMP280;54354;44.724;11.284;2023-01-31T11:23:31;102294.13;;;14.08
67509;BMP280;54354;44.724;11.284;2023-01-31T11:25:58;102300.97;;;14.13
67509;BMP280;54354;44.724;11.284;2023-01-31T11:28:36;102292.56;;;14.18
67509;BMP280;54354;44.724;11.284;2023-01-31T11:31:04;102294.09;;;14.19
67509;BMP280;54354;44.724;11.284;2023-01-31T11:33:37;102288.34;;;14.24
67509;BMP280;54354;44.724;11.284;2023-01-31T11:36:08;102288.34;;;14.27
67509;BMP280;54354;44.724;11.284;2023-01-31T11:38:34;102285.97;;;14.37
67509;BMP280;54354;44.724;11.284;2023-01-31T11:40:59;102296.63;;;14.40
67509;BMP280;54354;44.724;11.284;2023-01-31T11:43:25;102285.16;;;14.43
67509;BMP280;54354;44.724;11.284;2023-01-31T11:46:01;102279.75;;;14.50
67509;BMP280;54354;44.724;11.284;2023-01-31T11:48:42;102272.50;;;14.54
67509;BMP280;54354;44.724;11.284;2023-01-31T11:51:23;102273.25;;;14.55
67509;BMP280;54354;44.724;11.284;2023-01-31T11:53:51;102262.53;;;14.62
67509;BMP280;54354;44.724;11.284;2023-01-31T11:56:22;102263.28;;;14.63
67509;BMP280;54354;44.724;11.284;2023-01-31T11:58:55;102261.34;;;14.67
67509;BMP280;54354;44.724;11.284;2023-01-31T12:01:25;102251.81;;;14.69
67509;BMP280;54354;44.724;11.284;2023-01-31T12:03:59;102256.34;;;14.72
67509;BMP280;54354;44.724;11.284;2023-01-31T12:06:39;102238.41;;;14.76
67509;BMP280;54354;44.724;11.284;2023-01-31T12:09:19;102244.03;;;14.85
67509;BMP280;54354;44.724;11.284;2023-01-31T12:11:49;102242.84;;;15.24
67509;BMP280;54354;44.724;11.284;2023-01-31T12:14:16;102240.41;;;15.03
67509;BMP280;54354;44.724;11.284;2023-01-31T12:16:46;102235.16;;;14.96
67509;BMP280;54354;44.724;11.284;2023-01-31T12:27:38;102221.44;;;15.28
67509;BMP280;54354;44.724;11.284;2023-01-31T12:51:33;102212.31;;;15.56
67509;BMP280;54354;44.724;11.284;2023-01-31T13:04:35;102212.34;;;15.79
67509;BMP280;54354;44.724;11.284;2023-01-31T13:07:08;102200.09;;;15.82
67509;BMP280;54354;44.724;11.284;2023-01-31T13:09:36;102204.94;;;15.90
67509;BMP280;54354;44.724;11.284;2023-01-31T13:14:39;102186.94;;;15.94
67509;BMP280;54354;44.724;11.284;2023-01-31T13:17:09;102181.13;;;16.00
67509;BMP280;54354;44.724;11.284;2023-01-31T13:22:16;102180.19;;;16.10
67509;BMP280;54354;44.724;11.284;2023-01-31T13:24:47;102173.59;;;16.14
67509;BMP280;54354;44.724;11.284;2023-01-31T13:27:21;102172.72;;;16.21
67509;BMP280;54354;44.724;11.284;2023-01-31T13:30:01;102163.38;;;16.33
67509;BMP280;54354;44.724;11.284;2023-01-31T13:32:37;102169.00;;;16.38
67509;BMP280;54354;44.724;11.284;2023-01-31T13:35:32;102169.16;;;16.51
67509;BMP280;54354;44.724;11.284;2023-01-31T13:38:02;102165.38;;;16.48
67509;BMP280;54354;44.724;11.284;2023-01-31T13:40:56;102148.28;;;16.62
67509;BMP280;54354;44.724;11.284;2023-01-31T13:43:22;102146.44;;;16.59
67509;BMP280;54354;44.724;11.284;2023-01-31T13:53:49;102135.81;;;16.75
67509;BMP280;54354;44.724;11.284;2023-01-31T13:56:23;102140.75;;;16.77
67509;BMP280;54354;44.724;11.284;2023-01-31T13:58:50;102152.53;;;16.80
67509;BMP280;54354;44.724;11.284;2023-01-31T14:01:21;102151.13;;;16.75
67509;BMP280;54354;44.724;11.284;2023-01-31T14:20:13;102153.19;;;16.84
67509;BMP280;54354;44.724;11.284;2023-01-31T14:23:26;102153.41;;;16.93
67509;BMP280;54354;44.724;11.284;2023-01-31T14:25:52;102159.25;;;16.88
67509;BMP280;54354;44.724;11.284;2023-01-31T14:28:17;102153.56;;;16.86
67509;BMP280;54354;44.724;11.284;2023-01-31T14:30:44;102154.31;;;16.86
67509;BMP280;54354;44.724;11.284;2023-01-31T14:41:27;102137.78;;;16.91
67509;BMP280;54354;44.724;11.284;2023-01-31T14:55:27;102150.50;;;17.03
67509;BMP280;54354;44.724;11.284;2023-01-31T14:57:57;102134.63;;;16.96
67509;BMP280;54354;44.724;11.284;2023-01-31T15:00:28;102144.22;;;16.94
67509;BMP280;54354;44.724;11.284;2023-01-31T15:03:01;102143.03;;;16.95
67509;BMP280;54354;44.724;11.284;2023-01-31T15:05:40;102130.41;;;16.95
67509;BMP280;54354;44.724;11.284;2023-01-31T15:18:46;102134.44;;;16.87
67509;BMP280;54354;44.724;11.284;2023-01-31T15:21:18;102134.91;;;16.82
67509;BMP280;54354;44.724;11.284;2023-01-31T15:23:45;102134.09;;;16.85
67509;BMP280;54354;44.724;11.284;2023-01-31T15:26:13;102136.47;;;16.80
67509;BMP280;54354;44.724;11.284;2023-01-31T15:28:42;102130.78;;;16.77
67509;BMP280;54354;44.724;11.284;2023-01-31T15:31:41;102132.16;;;16.86
67509;BMP280;54354;44.724;11.284;2023-01-31T15:34:24;102125.00;;;17.15
67509;BMP280;54354;44.724;11.284;2023-01-31T15:36:57;102128.81;;;16.82
67509;BMP280;54354;44.724;11.284;2023-01-31T15:40:00;102130.78;;;16.77
67509;BMP280;54354;44.724;11.284;2023-01-31T15:42:31;102126.06;;;16.65
67509;BMP280;54354;44.724;11.284;2023-01-31T15:47:42;102132.75;;;16.57
67509;BMP280;54354;44.724;11.284;2023-01-31T15:50:14;102133.63;;;16.51
67509;BMP280;54354;44.724;11.284;2023-01-31T15:52:40;102137.06;;;16.51
67509;BMP280;54354;44.724;11.284;2023-01-31T15:55:06;102136.72;;;16.49
67509;BMP280;54354;44.724;11.284;2023-01-31T15:57:41;102133.00;;;16.43
67509;BMP280;54354;44.724;11.284;2023-01-31T16:00:13;102141.44;;;16.41
67509;BMP280;54354;44.724;11.284;2023-01-31T16:02:41;102139.19;;;16.40
67509;BMP280;54354;44.724;11.284;2023-01-31T16:05:07;102140.00;;;16.37
67509;BMP280;54354;44.724;11.284;2023-01-31T16:07:33;102134.78;;;16.30
67509;BMP280;54354;44.724;11.284;2023-01-31T16:09:59;102138.69;;;16.25
67509;BMP280;54354;44.724;11.284;2023-01-31T16:12:29;102137.97;;;16.21
67509;BMP280;54354;44.724;11.284;2023-01-31T16:14:57;102140.09;;;16.10
67509;BMP280;54354;44.724;11.284;2023-01-31T16:17:26;102131.38;;;16.06
67509;BMP280;54354;44.724;11.284;2023-01-31T16:19:52;102140.28;;;15.99
67509;BMP280;54354;44.724;11.284;2023-01-31T16:22:29;102133.97;;;15.89
67509;BMP280;54354;44.724;11.284;2023-01-31T16:24:57;102136.03;;;15.78
67509;BMP280;54354;44.724;11.284;2023-01-31T16:27:35;102144.94;;;15.72
67509;BMP280;54354;44.724;11.284;2023-01-31T16:30:01;102143.88;;;15.65
67509;BMP280;54354;44.724;11.284;2023-01-31T16:32:30;102142.94;;;15.52
67509;BMP280;54354;44.724;11.284;2023-01-31T16:37:34;102144.28;;;15.37
67509;BMP280;54354;44.724;11.284;2023-01-31T16:40:21;102143.97;;;15.35
67509;BMP280;54354;44.724;11.284;2023-01-31T16:42:49;102150.53;;;15.27
67509;BMP280;54354;44.724;11.284;2023-01-31T16:45:29;102152.53;;;15.19
67509;BMP280;54354;44.724;11.284;2023-01-31T16:48:10;102147.19;;;15.19